Terminal Aerodrome Forecast
Issued by NWS

Home | Current Version | Previous Version | Text Only | Print | Product List | Glossary On
Versions: 1 2 3 4 5 6 7 8 9 10 11 12 13 14 15
000
FTUS45 KRIW 171121
TAFBPI
TAF
KBPI 171121Z 1712/1812 VRB04KT 5SM BR SCT002
      TEMPO 1713/1717 3/4SM BR VV002
     FM171800 VRB03KT P6SM VCFG SCT005
     FM172000 VRB03KT P6SM SKC=

USA.gov is the U.S. government's official web portal to all federal, state and local government web resources and services.